createdAt,value
2022-12-31T00:00:22.459Z,1.70
2022-12-31T00:02:49.007Z,2.20
2022-12-31T00:05:15.558Z,1.83
2022-12-31T00:10:07.774Z,1.63
2022-12-31T00:12:34.151Z,1.55
2022-12-31T00:15:00.597Z,1.83
2022-12-31T00:17:26.954Z,1.38
2022-12-31T00:19:54.519Z,2.35
2022-12-31T00:22:20.940Z,1.52
2022-12-31T00:24:47.326Z,1.75
2022-12-31T00:27:13.645Z,1.92
2022-12-31T00:29:40.024Z,2.72
2022-12-31T00:32:06.400Z,1.77
2022-12-31T00:34:33.230Z,1.35
2022-12-31T00:36:59.614Z,1.40
2022-12-31T00:39:26.001Z,1.27
2022-12-31T00:41:52.354Z,1.50
2022-12-31T00:44:18.836Z,1.40
2022-12-31T00:49:10.755Z,1.95
2022-12-31T00:51:37.133Z,1.70
2022-12-31T00:54:03.611Z,1.88
2022-12-31T00:56:31.005Z,3.38
2022-12-31T00:58:58.295Z,1.30
2022-12-31T01:01:30.030Z,1.48
2022-12-31T01:04:00.580Z,2.03
2022-12-31T01:06:28.578Z,1.52
2022-12-31T01:08:55.625Z,1.50
2022-12-31T01:11:22.897Z,2.78
2022-12-31T01:13:52.293Z,1.30
2022-12-31T01:16:21.624Z,4.60
2022-12-31T01:18:48.745Z,2.03
2022-12-31T01:21:15.599Z,1.58
2022-12-31T01:23:42.347Z,0.98
2022-12-31T01:26:10.962Z,0.80
2022-12-31T01:28:37.510Z,0.95
2022-12-31T01:31:09.024Z,4.20
2022-12-31T01:33:35.648Z,0.90
2022-12-31T01:36:07.313Z,1.08
2022-12-31T01:38:34.870Z,0.85
2022-12-31T01:41:01.473Z,0.93
2022-12-31T01:43:47.244Z,1.20
2022-12-31T01:46:26.670Z,1.13
2022-12-31T01:48:56.879Z,0.80
2022-12-31T01:51:25.585Z,0.90
2022-12-31T01:53:52.015Z,1.00
2022-12-31T01:56:20.043Z,1.83
2022-12-31T01:58:48.834Z,1.52
2022-12-31T02:01:20.190Z,1.25
2022-12-31T02:03:46.683Z,0.90
2022-12-31T02:06:33.564Z,2.55
2022-12-31T02:09:00.692Z,0.95
2022-12-31T02:11:27.023Z,2.53
2022-12-31T02:13:58.536Z,2.15
2022-12-31T02:16:42.294Z,1.13
2022-12-31T02:19:23.887Z,0.95
2022-12-31T02:22:03.613Z,0.82
2022-12-31T02:24:51.201Z,2.97
2022-12-31T02:27:33.939Z,1.08
2022-12-31T02:30:06.383Z,1.27
2022-12-31T02:32:54.301Z,1.02
2022-12-31T02:35:22.841Z,2.70
2022-12-31T02:37:53.551Z,1.15
2022-12-31T02:40:21.937Z,1.27
2022-12-31T02:42:54.874Z,3.65
2022-12-31T02:45:27.382Z,0.95
2022-12-31T02:48:19.256Z,1.58
2022-12-31T02:51:11.144Z,0.90
2022-12-31T02:54:12.596Z,3.45
2022-12-31T02:57:30.853Z,1.33
2022-12-31T03:00:28.219Z,1.48
2022-12-31T03:02:55.128Z,0.85
2022-12-31T03:05:25.190Z,1.63
2022-12-31T03:07:51.871Z,4.55
2022-12-31T03:10:18.299Z,1.17
2022-12-31T03:12:47.992Z,1.20
2022-12-31T03:15:21.463Z,2.15
2022-12-31T03:17:53.991Z,2.30
2022-12-31T03:20:40.505Z,3.28
2022-12-31T03:25:49.545Z,2.70
2022-12-31T03:28:18.780Z,2.38
2022-12-31T03:30:48.303Z,2.15
2022-12-31T03:33:15.168Z,3.67
2022-12-31T03:35:44.130Z,2.38
2022-12-31T03:38:10.930Z,2.90
2022-12-31T03:40:43.121Z,3.75
2022-12-31T03:43:09.861Z,2.08
2022-12-31T03:45:36.571Z,1.90
2022-12-31T03:48:03.509Z,2.75
2022-12-31T03:50:30.200Z,4.07
2022-12-31T03:52:56.992Z,2.15
2022-12-31T03:55:23.589Z,1.40
2022-12-31T03:57:50.158Z,1.42
2022-12-31T04:00:19.154Z,1.30
2022-12-31T04:02:47.147Z,2.47
2022-12-31T04:05:14.172Z,1.98
2022-12-31T04:07:41.158Z,1.50
2022-12-31T04:10:09.210Z,1.55
2022-12-31T04:12:36.025Z,1.70
2022-12-31T04:15:02.632Z,2.80
2022-12-31T04:17:29.044Z,1.88
2022-12-31T04:19:55.507Z,1.90
2022-12-31T04:22:21.988Z,5.80
2022-12-31T04:24:48.442Z,2.63
2022-12-31T04:27:15.201Z,2.92
2022-12-31T04:29:41.612Z,1.98
2022-12-31T04:32:08.700Z,2.97
2022-12-31T04:34:35.352Z,3.22
2022-12-31T04:37:01.908Z,1.67
2022-12-31T04:39:28.342Z,1.65
2022-12-31T04:41:54.807Z,2.05
2022-12-31T04:44:21.676Z,2.40
2022-12-31T04:46:48.138Z,6.60
2022-12-31T04:49:14.514Z,4.15
2022-12-31T04:51:40.986Z,2.75
2022-12-31T04:54:07.415Z,2.20
2022-12-31T04:56:36.546Z,2.58
2022-12-31T04:59:04.715Z,2.40
2022-12-31T05:01:31.513Z,3.30
2022-12-31T05:03:58.807Z,1.63
2022-12-31T05:06:25.320Z,1.77
2022-12-31T05:08:51.739Z,3.28
2022-12-31T05:11:18.242Z,4.35
2022-12-31T05:13:44.952Z,3.20
2022-12-31T05:16:11.696Z,1.95
2022-12-31T05:18:38.468Z,1.98
2022-12-31T05:21:05.573Z,4.50
2022-12-31T05:23:32.386Z,6.30
2022-12-31T05:25:59.602Z,2.75
2022-12-31T05:28:26.379Z,1.38
2022-12-31T05:30:52.962Z,2.25
2022-12-31T05:33:19.749Z,3.08
2022-12-31T05:35:46.171Z,3.83
2022-12-31T05:38:12.622Z,3.72
2022-12-31T05:40:39.019Z,1.40
2022-12-31T05:43:05.431Z,3.00
2022-12-31T05:45:31.842Z,1.98
2022-12-31T05:47:58.311Z,2.15
2022-12-31T05:50:24.697Z,2.53
2022-12-31T05:52:51.214Z,1.55
2022-12-31T05:55:17.731Z,3.08
2022-12-31T05:57:44.135Z,4.05
2022-12-31T06:00:11.364Z,1.65
2022-12-31T06:02:37.801Z,3.22
2022-12-31T06:05:05.227Z,2.97
2022-12-31T06:07:31.739Z,1.85
2022-12-31T06:09:58.105Z,2.20
2022-12-31T06:12:24.452Z,2.92
2022-12-31T06:14:50.873Z,3.00
2022-12-31T06:17:17.547Z,4.10
2022-12-31T06:19:43.931Z,2.25
2022-12-31T06:22:10.392Z,1.65
2022-12-31T06:24:36.837Z,3.13
2022-12-31T06:27:03.301Z,2.33
2022-12-31T06:29:29.805Z,1.25
2022-12-31T06:31:56.200Z,1.67
2022-12-31T06:34:22.580Z,2.33
2022-12-31T06:36:48.942Z,3.15
2022-12-31T06:39:15.386Z,2.28
2022-12-31T06:41:41.804Z,2.00
2022-12-31T06:44:08.223Z,1.30
2022-12-31T06:46:34.622Z,2.00
2022-12-31T06:49:01.013Z,1.10
2022-12-31T06:51:27.428Z,3.10
2022-12-31T06:53:53.878Z,2.38
2022-12-31T06:56:31.326Z,2.35
2022-12-31T06:59:00.682Z,1.20
2022-12-31T07:02:00.311Z,4.18
2022-12-31T07:04:35.462Z,1.80
2022-12-31T07:07:26.702Z,3.78
2022-12-31T07:10:05.607Z,3.25
2022-12-31T07:12:53.982Z,2.88
2022-12-31T07:15:45.747Z,1.80
2022-12-31T07:18:28.826Z,2.47
2022-12-31T07:20:55.432Z,1.50
2022-12-31T07:23:22.093Z,1.67
2022-12-31T07:26:00.301Z,1.20
2022-12-31T07:28:41.578Z,1.35
2022-12-31T07:31:13.207Z,1.88
2022-12-31T07:33:54.568Z,1.90
2022-12-31T07:36:30.792Z,2.35
2022-12-31T07:39:10.635Z,1.58
2022-12-31T07:41:52.359Z,1.75
2022-12-31T07:44:26.621Z,2.75
2022-12-31T07:49:24.986Z,2.80
2022-12-31T07:51:51.924Z,3.50
2022-12-31T07:54:18.396Z,1.52
2022-12-31T07:56:45.310Z,1.55
2022-12-31T07:59:24.210Z,1.60
2022-12-31T08:02:29.282Z,3.17
2022-12-31T08:05:18.774Z,1.70
2022-12-31T08:07:54.062Z,7.85
2022-12-31T08:10:32.801Z,1.88
2022-12-31T08:13:05.540Z,1.75
2022-12-31T08:15:32.029Z,2.00
2022-12-31T08:17:58.548Z,1.92
2022-12-31T08:20:25.507Z,3.13
2022-12-31T08:23:20.108Z,2.38
2022-12-31T08:26:03.900Z,2.20
2022-12-31T08:28:35.028Z,3.67
2022-12-31T08:31:04.590Z,2.15
2022-12-31T08:34:06.244Z,2.97
2022-12-31T08:36:52.685Z,2.47
2022-12-31T08:39:18.883Z,5.63
2022-12-31T08:41:47.700Z,2.65
2022-12-31T08:44:32.023Z,2.90
2022-12-31T08:47:16.505Z,4.15
2022-12-31T08:52:16.286Z,4.70
2022-12-31T08:54:42.811Z,4.15
2022-12-31T08:57:23.996Z,1.90
2022-12-31T09:00:04.444Z,2.30
2022-12-31T09:03:02.590Z,1.92
2022-12-31T09:05:52.980Z,2.42
2022-12-31T09:08:22.288Z,1.70
2022-12-31T09:11:10.320Z,2.63
2022-12-31T09:13:54.326Z,2.15
2022-12-31T09:16:42.738Z,3.33
2022-12-31T09:19:10.133Z,2.42
2022-12-31T09:21:37.999Z,2.10
2022-12-31T09:24:09.329Z,3.45
2022-12-31T09:26:47.965Z,4.60
2022-12-31T09:29:26.109Z,3.83
2022-12-31T09:32:12.315Z,3.15
2022-12-31T09:35:03.957Z,3.80
2022-12-31T09:37:46.146Z,4.05
2022-12-31T09:40:49.259Z,3.30
2022-12-31T09:43:26.342Z,3.63
2022-12-31T09:45:58.749Z,3.33
2022-12-31T09:48:48.175Z,4.68
2022-12-31T09:51:28.471Z,2.03
2022-12-31T09:54:17.717Z,4.38
2022-12-31T09:57:08.651Z,2.38
2022-12-31T10:00:12.059Z,2.17
2022-12-31T10:02:51.104Z,4.25
2022-12-31T10:05:23.675Z,2.15
2022-12-31T10:08:27.430Z,2.58
2022-12-31T10:10:57.797Z,3.28
2022-12-31T10:13:39.478Z,2.47
2022-12-31T10:16:56.139Z,3.95
2022-12-31T10:19:41.462Z,4.50
2022-12-31T10:22:45.219Z,3.72
2022-12-31T10:25:38.915Z,2.03
2022-12-31T10:28:15.080Z,4.28
2022-12-31T10:30:49.124Z,2.58
2022-12-31T10:33:20.798Z,3.83
2022-12-31T10:36:02.551Z,4.43
2022-12-31T10:38:40.804Z,3.95
2022-12-31T10:41:28.240Z,3.78
2022-12-31T10:44:27.228Z,3.03
2022-12-31T10:47:15.257Z,3.28
2022-12-31T10:50:00.046Z,3.63
2022-12-31T10:53:04.007Z,4.13
2022-12-31T10:55:58.357Z,2.55
2022-12-31T10:59:00.762Z,6.28
2022-12-31T11:01:48.227Z,8.88
2022-12-31T11:04:23.448Z,3.00
2022-12-31T11:07:08.734Z,2.50
2022-12-31T11:09:53.241Z,2.90
2022-12-31T11:15:01.501Z,6.22
2022-12-31T11:17:47.258Z,4.30
2022-12-31T11:20:41.687Z,7.85
2022-12-31T11:23:24.283Z,2.00
2022-12-31T11:26:12.621Z,3.20
2022-12-31T11:29:01.551Z,3.58
2022-12-31T11:31:30.876Z,3.88
2022-12-31T11:34:00.243Z,3.47
2022-12-31T11:36:37.294Z,2.85
2022-12-31T11:39:33.113Z,4.13
2022-12-31T11:42:07.591Z,2.25
2022-12-31T11:44:49.063Z,7.90
2022-12-31T11:47:33.265Z,8.35
2022-12-31T11:50:24.364Z,3.13
2022-12-31T11:53:28.148Z,4.82
2022-12-31T11:56:03.205Z,4.22
2022-12-31T11:58:29.721Z,2.63
2022-12-31T12:00:59.734Z,3.50
2022-12-31T12:03:26.614Z,3.28
2022-12-31T12:05:54.576Z,3.08
2022-12-31T12:08:20.978Z,9.55
2022-12-31T12:10:50.667Z,2.10
2022-12-31T12:13:16.882Z,3.33
2022-12-31T12:15:53.211Z,3.28
2022-12-31T12:18:40.707Z,2.60
2022-12-31T12:21:11.237Z,3.10
2022-12-31T12:23:38.205Z,4.00
2022-12-31T12:26:05.545Z,3.92
2022-12-31T12:28:44.455Z,2.45
2022-12-31T12:31:21.771Z,2.85
2022-12-31T12:33:50.236Z,4.63
2022-12-31T12:36:18.803Z,3.28
2022-12-31T12:38:45.369Z,2.67
2022-12-31T12:41:20.006Z,2.10
2022-12-31T12:43:46.426Z,2.85
2022-12-31T12:46:23.417Z,2.47
2022-12-31T12:48:55.084Z,2.45
2022-12-31T12:51:48.317Z,4.03
2022-12-31T12:54:24.708Z,3.03
2022-12-31T12:56:59.762Z,1.70
2022-12-31T12:59:43.829Z,3.67
2022-12-31T13:02:50.607Z,3.13
2022-12-31T13:05:46.300Z,2.63
2022-12-31T13:08:34.116Z,2.25
2022-12-31T13:11:45.683Z,2.22
2022-12-31T13:14:32.465Z,2.75
2022-12-31T13:17:27.953Z,3.08
2022-12-31T13:20:05.411Z,2.83
2022-12-31T13:22:41.453Z,2.85
2022-12-31T13:25:45.668Z,4.55
2022-12-31T13:28:13.981Z,2.10
2022-12-31T13:30:43.243Z,3.40
2022-12-31T13:33:16.577Z,2.00
2022-12-31T13:36:03.865Z,4.33
2022-12-31T13:38:36.781Z,2.70
2022-12-31T13:41:17.190Z,5.05
2022-12-31T13:43:51.711Z,2.15
2022-12-31T13:46:35.845Z,1.70
2022-12-31T13:49:05.737Z,4.65
2022-12-31T13:51:44.855Z,3.47
2022-12-31T13:54:29.860Z,3.67
2022-12-31T13:56:59.978Z,1.88
2022-12-31T13:59:32.930Z,1.95
2022-12-31T14:02:07.733Z,6.53
2022-12-31T14:04:38.123Z,3.30
2022-12-31T14:07:15.557Z,3.03
2022-12-31T14:09:42.392Z,1.60
2022-12-31T14:12:46.315Z,1.80
2022-12-31T14:15:37.163Z,3.38
2022-12-31T14:18:10.927Z,4.85
2022-12-31T14:20:46.278Z,2.88
2022-12-31T14:23:40.206Z,2.13
2022-12-31T14:26:27.432Z,2.53
2022-12-31T14:29:05.892Z,6.28
2022-12-31T14:31:49.980Z,3.75
2022-12-31T14:34:47.395Z,2.58
2022-12-31T14:37:51.070Z,3.00
2022-12-31T14:40:29.598Z,3.45
2022-12-31T14:43:18.910Z,3.83
2022-12-31T14:46:00.365Z,1.90
2022-12-31T14:48:38.661Z,3.17
2022-12-31T14:51:06.623Z,3.63
2022-12-31T14:53:33.112Z,2.50
2022-12-31T14:56:01.025Z,1.90
2022-12-31T14:58:38.976Z,2.80
2022-12-31T15:01:10.124Z,4.18
2022-12-31T15:03:41.265Z,6.53
2022-12-31T15:06:32.744Z,3.15
2022-12-31T15:09:40.933Z,2.58
2022-12-31T15:12:16.057Z,4.25
2022-12-31T15:14:59.090Z,2.88
2022-12-31T15:17:40.183Z,7.05
2022-12-31T15:20:26.004Z,5.63
2022-12-31T15:22:53.304Z,4.13
2022-12-31T15:25:28.475Z,5.55
2022-12-31T15:27:57.856Z,2.47
2022-12-31T15:30:31.703Z,2.13
2022-12-31T15:33:01.051Z,3.50
2022-12-31T15:35:32.909Z,1.65
2022-12-31T15:38:15.567Z,2.03
2022-12-31T15:40:49.909Z,1.85
2022-12-31T15:43:25.120Z,3.20
2022-12-31T15:45:55.345Z,1.95
2022-12-31T15:48:29.624Z,2.20
2022-12-31T15:53:29.890Z,2.45
2022-12-31T15:55:58.902Z,3.63
2022-12-31T15:58:29.829Z,2.72
2022-12-31T16:01:22.307Z,1.65
2022-12-31T16:04:00.339Z,2.05
2022-12-31T16:06:30.676Z,3.67
2022-12-31T16:08:57.716Z,3.53
2022-12-31T16:11:24.572Z,2.05
2022-12-31T16:13:53.257Z,1.98
2022-12-31T16:16:22.691Z,1.92
2022-12-31T16:18:50.194Z,2.70
2022-12-31T16:21:32.551Z,1.88
2022-12-31T16:24:31.128Z,2.10
2022-12-31T16:27:01.123Z,2.60
2022-12-31T16:29:27.579Z,2.63
2022-12-31T16:31:54.255Z,4.60
2022-12-31T16:34:26.485Z,6.97
2022-12-31T16:37:00.968Z,3.00
2022-12-31T16:39:35.295Z,3.30
2022-12-31T16:42:13.931Z,1.63
2022-12-31T16:44:40.856Z,2.90
2022-12-31T16:47:08.968Z,5.07
2022-12-31T16:49:38.011Z,2.40
2022-12-31T16:52:08.624Z,4.00
2022-12-31T16:54:39.591Z,3.95
2022-12-31T16:57:06.299Z,5.72
2022-12-31T16:59:36.662Z,4.05
2022-12-31T17:02:05.019Z,7.10
2022-12-31T17:04:31.439Z,5.65
2022-12-31T17:07:29.741Z,2.85
2022-12-31T17:10:03.322Z,3.22
2022-12-31T17:12:53.075Z,3.72
2022-12-31T17:15:40.174Z,4.07
2022-12-31T17:18:07.436Z,2.88
2022-12-31T17:20:34.152Z,5.18
2022-12-31T17:23:03.875Z,3.10
2022-12-31T17:25:32.312Z,2.20
2022-12-31T17:28:06.897Z,5.55
2022-12-31T17:30:33.258Z,3.20
2022-12-31T17:33:03.849Z,3.80
2022-12-31T17:35:31.599Z,1.70
2022-12-31T17:38:25.617Z,3.63
2022-12-31T17:41:07.149Z,3.90
2022-12-31T17:43:35.717Z,3.85
2022-12-31T17:46:03.618Z,4.18
2022-12-31T17:48:30.303Z,3.25
2022-12-31T17:50:59.435Z,7.38
2022-12-31T17:53:26.339Z,4.57
2022-12-31T17:55:55.101Z,3.20
2022-12-31T17:58:29.832Z,3.60
2022-12-31T18:00:56.856Z,2.92
2022-12-31T18:03:23.345Z,4.05
2022-12-31T18:05:49.911Z,3.33
2022-12-31T18:08:16.288Z,2.00
2022-12-31T18:10:43.896Z,3.63
2022-12-31T18:13:19.194Z,3.13
2022-12-31T18:15:45.971Z,4.82
2022-12-31T18:18:26.121Z,3.80
2022-12-31T18:20:55.624Z,3.38
2022-12-31T18:23:48.463Z,3.88
2022-12-31T18:26:20.069Z,3.75
2022-12-31T18:28:46.899Z,6.30
2022-12-31T18:31:17.605Z,5.75
2022-12-31T18:33:46.860Z,3.53
2022-12-31T18:36:14.966Z,3.10
2022-12-31T18:38:41.855Z,2.70
2022-12-31T18:41:16.846Z,2.55
2022-12-31T18:43:44.238Z,3.20
2022-12-31T18:46:13.146Z,3.88
2022-12-31T18:48:42.761Z,3.15
2022-12-31T18:51:16.885Z,4.85
2022-12-31T18:53:43.344Z,3.38
2022-12-31T18:56:15.784Z,3.80
2022-12-31T18:58:42.540Z,3.90
2022-12-31T19:01:32.966Z,3.58
2022-12-31T19:04:04.835Z,2.30
2022-12-31T19:06:31.199Z,3.33
2022-12-31T19:08:59.158Z,2.90
2022-12-31T19:11:28.767Z,4.75
2022-12-31T19:13:55.178Z,3.33
2022-12-31T19:16:21.601Z,4.25
2022-12-31T19:18:49.018Z,4.85
2022-12-31T19:21:18.536Z,4.07
2022-12-31T19:23:45.514Z,6.15
2022-12-31T19:26:17.480Z,4.50
2022-12-31T19:28:44.785Z,3.75
2022-12-31T19:31:11.811Z,6.15
2022-12-31T19:33:38.689Z,2.97
2022-12-31T19:36:07.257Z,6.00
2022-12-31T19:38:33.981Z,5.60
2022-12-31T19:41:00.419Z,5.60
2022-12-31T19:43:26.829Z,4.32
2022-12-31T19:45:53.499Z,8.20
2022-12-31T19:48:28.585Z,3.88
2022-12-31T19:50:58.585Z,6.45
2022-12-31T19:53:26.791Z,6.13
2022-12-31T19:55:53.768Z,4.13
2022-12-31T19:58:22.069Z,5.07
2022-12-31T20:00:55.699Z,3.10
2022-12-31T20:03:26.539Z,5.82
2022-12-31T20:06:01.328Z,6.75
2022-12-31T20:08:27.667Z,3.90
2022-12-31T20:10:58.557Z,8.15
2022-12-31T20:13:26.508Z,7.10
2022-12-31T20:15:54.126Z,4.22
2022-12-31T20:18:22.326Z,3.28
2022-12-31T20:20:55.371Z,5.40
2022-12-31T20:23:22.276Z,2.75
2022-12-31T20:25:59.050Z,4.20
2022-12-31T20:28:25.823Z,5.57
2022-12-31T20:30:52.200Z,4.15
2022-12-31T20:33:19.488Z,5.25
2022-12-31T20:35:46.066Z,6.05
2022-12-31T20:38:12.459Z,6.07
2022-12-31T20:40:44.548Z,4.50
2022-12-31T20:43:12.928Z,8.80
2022-12-31T20:45:40.746Z,4.40
2022-12-31T20:48:07.328Z,4.35
2022-12-31T20:50:33.663Z,4.03
2022-12-31T20:53:00.108Z,5.47
2022-12-31T20:55:27.441Z,5.57
2022-12-31T20:57:53.835Z,8.15
2022-12-31T21:00:20.202Z,4.68
2022-12-31T21:02:53.159Z,5.00
2022-12-31T21:05:24.273Z,5.88
2022-12-31T21:07:50.866Z,6.03
2022-12-31T21:10:17.251Z,5.18
2022-12-31T21:12:43.706Z,4.63
2022-12-31T21:15:13.381Z,5.13
2022-12-31T21:17:39.777Z,6.20
2022-12-31T21:20:06.799Z,4.95
2022-12-31T21:22:33.765Z,3.17
2022-12-31T21:25:01.451Z,3.60
2022-12-31T21:27:29.087Z,2.47
2022-12-31T21:30:19.516Z,2.53
2022-12-31T21:32:42.377Z,3.17
2022-12-31T21:35:41.109Z,3.70
2022-12-31T21:37:58.242Z,2.55
2022-12-31T21:40:26.748Z,2.75
2022-12-31T21:42:56.174Z,6.40
2022-12-31T21:45:22.566Z,4.50
2022-12-31T21:48:07.577Z,2.53
2022-12-31T21:50:34.200Z,3.03
2022-12-31T21:53:00.563Z,3.75
2022-12-31T21:55:47.210Z,4.70
2022-12-31T21:58:25.700Z,2.80
2022-12-31T22:01:12.317Z,4.43
2022-12-31T22:03:38.908Z,3.95
2022-12-31T22:06:10.695Z,4.15
2022-12-31T22:08:37.205Z,4.10
2022-12-31T22:11:03.809Z,4.40
2022-12-31T22:13:30.328Z,3.92
2022-12-31T22:16:04.228Z,4.68
2022-12-31T22:18:34.261Z,4.97
2022-12-31T22:21:21.075Z,3.42
2022-12-31T22:23:49.199Z,3.60
2022-12-31T22:26:18.168Z,3.92
2022-12-31T22:28:45.565Z,4.22
2022-12-31T22:31:20.336Z,3.42
2022-12-31T22:33:47.273Z,3.70
2022-12-31T22:36:16.246Z,3.58
2022-12-31T22:38:43.108Z,3.85
2022-12-31T22:41:14.882Z,4.53
2022-12-31T22:43:43.902Z,3.85
2022-12-31T22:46:24.606Z,5.28
2022-12-31T22:48:52.120Z,3.70
2022-12-31T22:51:19.491Z,4.65
2022-12-31T22:53:46.165Z,3.90
2022-12-31T22:56:15.030Z,4.13
2022-12-31T22:58:41.579Z,4.22
2022-12-31T23:01:14.781Z,6.63
2022-12-31T23:03:42.200Z,12.05
2022-12-31T23:06:09.030Z,36.47
2022-12-31T23:08:35.415Z,56.70
2022-12-31T23:11:05.744Z,40.08
2022-12-31T23:13:56.517Z,68.28
2022-12-31T23:16:43.177Z,53.35
2022-12-31T23:19:28.756Z,79.65
2022-12-31T23:22:14.339Z,86.40
2022-12-31T23:24:40.868Z,79.25
2022-12-31T23:27:08.276Z,75.82
2022-12-31T23:29:43.745Z,77.25
2022-12-31T23:32:12.885Z,83.55
2022-12-31T23:34:39.307Z,84.65
2022-12-31T23:37:05.767Z,81.47
2022-12-31T23:39:32.203Z,81.53
2022-12-31T23:41:59.959Z,75.63
2022-12-31T23:44:26.903Z,70.38
2022-12-31T23:46:53.333Z,61.45
2022-12-31T23:49:19.764Z,60.60
2022-12-31T23:51:46.184Z,60.70
2022-12-31T23:54:15.854Z,66.00
2022-12-31T23:56:42.351Z,77.78
2022-12-31T23:59:09.908Z,64.90
